Observation data for Saint Lawrence on 07/03/2020      Previous  Date  Next       Current Mesonet Observations  Soil Data  Daily Summary Page  Observations in Plain Language
KST1 030500Z 15006KT 28/13 A3003 RMK A01 T02760127  RH  041%=      5-min Rain = 0
KST1 030505Z 14005KT 27/13 A3003 RMK A01 T02740126  RH  041%=      5-min Rain = 0
KST1 030510Z 13004KT 27/13 A3003 RMK A01 T02710125  RH  041%=      5-min Rain = 0
KST1 030515Z 11004KT 27/13 A3003 RMK A01 T02710126  RH  042%=      5-min Rain = 0
KST1 030520Z 11003KT 27/13 A3003 RMK A01 T02690125  RH  041%=      5-min Rain = 0
KST1 030525Z 12004KT 27/13 A3003 RMK A01 T02690125  RH  042%=      5-min Rain = 0
KST1 030530Z 12004KT 27/13 A3003 RMK A01 T02680125  RH  042%=      5-min Rain = 0
KST1 030535Z 12004KT 27/13 A3003 RMK A01 T02670125  RH  042%=      5-min Rain = 0
KST1 030540Z 11005KT 27/13 A3003 RMK A01 T02660125  RH  042%=      5-min Rain = 0
KST1 030545Z 11005KT 27/13 A3003 RMK A01 T02660125  RH  042%=      5-min Rain = 0
KST1 030550Z 10005KT 27/13 A3003 RMK A01 T02660126  RH  043%=      5-min Rain = 0
KST1 030555Z 09005KT 27/13 A3003 RMK A01 T02650126  RH  043%=      5-min Rain = 0
KST1 030600Z 10005KT 27/13 A3003 RMK A01 T02650125  RH  043%=      5-min Rain = 0
KST1 030605Z 10005KT 27/13 A3003 RMK A01 T02650127  RH  043%=      5-min Rain = 0
KST1 030610Z 11005KT 27/13 A3003 RMK A01 T02650129  RH  044%=      5-min Rain = 0
KST1 030615Z 11005KT 27/13 A3003 RMK A01 T02650130  RH  044%=      5-min Rain = 0
KST1 030620Z 10006KT 27/13 A3003 RMK A01 T02650130  RH  044%=      5-min Rain = 0
KST1 030625Z 11007KT 27/13 A3003 RMK A01 T02650130  RH  044%=      5-min Rain = 0
KST1 030630Z 11008KT 27/13 A3003 RMK A01 T02650130  RH  044%=      5-min Rain = 0
KST1 030635Z 12007KT 27/13 A3002 RMK A01 T02670132  RH  044%=      5-min Rain = 0
KST1 030640Z 12007KT 27/13 A3002 RMK A01 T02680132  RH  044%=      5-min Rain = 0
KST1 030645Z 11008KT 27/13 A3002 RMK A01 T02680132  RH  044%=      5-min Rain = 0
KST1 030650Z 12007KT 27/13 A3002 RMK A01 T02670132  RH  044%=      5-min Rain = 0
KST1 030655Z 12007KT 27/13 A3001 RMK A01 T02670132  RH  044%=      5-min Rain = 0
KST1 030700Z 12007KT 27/13 A3001 RMK A01 T02660131  RH  044%=      5-min Rain = 0
KST1 030705Z 12007KT 27/13 A3002 RMK A01 T02660131  RH  044%=      5-min Rain = 0
KST1 030710Z 12008KT 27/13 A3002 RMK A01 T02650131  RH  044%=      5-min Rain = 0
KST1 030715Z 13008KT 27/13 A3001 RMK A01 T02650131  RH  044%=      5-min Rain = 0
KST1 030720Z 13008KT 27/13 A3001 RMK A01 T02650131  RH  044%=      5-min Rain = 0
KST1 030725Z 12007KT 26/13 A3001 RMK A01 T02640131  RH  044%=      5-min Rain = 0
KST1 030730Z 12007KT 26/13 A3001 RMK A01 T02630130  RH  045%=      5-min Rain = 0
KST1 030735Z 12007KT 26/13 A3001 RMK A01 T02630131  RH  045%=      5-min Rain = 0
KST1 030740Z 13007KT 26/13 A3001 RMK A01 T02610130  RH  045%=      5-min Rain = 0
KST1 030745Z 14007KT 26/13 A3001 RMK A01 T02610130  RH  045%=      5-min Rain = 0
KST1 030750Z 14009KT 26/13 A3001 RMK A01 T02620130  RH  045%=      5-min Rain = 0
KST1 030755Z 15010KT 26/13 A30 RMK A01 T02630131  RH  045%=      5-min Rain = 0
KST1 030800Z 15009KT 26/13 A30 RMK A01 T02620132  RH  045%=      5-min Rain = 0
KST1 030805Z 15009KT 26/13 A3001 RMK A01 T02620132  RH  045%=      5-min Rain = 0
KST1 030810Z 15008KT 26/13 A3001 RMK A01 T02620132  RH  046%=      5-min Rain = 0
KST1 030815Z 15008KT 26/13 A3001 RMK A01 T02610133  RH  046%=      5-min Rain = 0
KST1 030820Z 14008KT 26/14 A3001 RMK A01 T02610135  RH  047%=      5-min Rain = 0
KST1 030825Z 15008KT 26/14 A3001 RMK A01 T02610135  RH  047%=      5-min Rain = 0
KST1 030830Z 15008KT 26/14 A30 RMK A01 T02600135  RH  047%=      5-min Rain = 0
KST1 030835Z 15008KT 26/14 A30 RMK A01 T02600136  RH  047%=      5-min Rain = 0
KST1 030840Z 15009KT 26/14 A30 RMK A01 T02600138  RH  048%=      5-min Rain = 0
KST1 030845Z 15010KT 26/14 A30 RMK A01 T02600139  RH  048%=      5-min Rain = 0
KST1 030850Z 15011KT 26/14 A3001 RMK A01 T02610140  RH  048%=      5-min Rain = 0
KST1 030855Z 15011KT 26/14 A3001 RMK A01 T02610141  RH  049%=      5-min Rain = 0
KST1 030900Z 15010KT 26/14 A3001 RMK A01 T02610142  RH  049%=      5-min Rain = 0
KST1 030905Z 16010KT 26/14 A3001 RMK A01 T02610143  RH  049%=      5-min Rain = 0
KST1 030910Z 16009KT 26/14 A30 RMK A01 T02610144  RH  049%=      5-min Rain = 0
KST1 030915Z 16009KT 26/15 A3001 RMK A01 T02610145  RH  050%=      5-min Rain = 0
KST1 030920Z 16011KT 26/15 A3001 RMK A01 T02610148  RH  051%=      5-min Rain = 0
KST1 030925Z 16012KT 26/15 A3001 RMK A01 T02600151  RH  052%=      5-min Rain = 0
KST1 030930Z 16011KT 26/15 A30 RMK A01 T02600151  RH  052%=      5-min Rain = 0
KST1 030935Z 16011KT 26/15 A30 RMK A01 T02590153  RH  053%=      5-min Rain = 0
KST1 030940Z 16011KT 26/16 A3001 RMK A01 T02590155  RH  054%=      5-min Rain = 0
KST1 030945Z 16011KT 26/16 A3001 RMK A01 T02580158  RH  055%=      5-min Rain = 0
KST1 030950Z 16011KT 26/16 A3001 RMK A01 T02580159  RH  056%=      5-min Rain = 0
KST1 030955Z 16010KT 26/16 A3001 RMK A01 T02570160  RH  056%=      5-min Rain = 0
KST1 031000Z 14009KT 26/16 A3002 RMK A01 T02560159  RH  057%=      5-min Rain = 0
KST1 031005Z 13009KT 25/16 A3002 RMK A01 T02540159  RH  057%=      5-min Rain = 0
KST1 031010Z 13010KT 25/16 A3002 RMK A01 T02530160  RH  057%=      5-min Rain = 0
KST1 031015Z 14011KT 25/16 A3003 RMK A01 T02520162  RH  059%=      5-min Rain = 0
KST1 031020Z 14011KT 25/16 A3003 RMK A01 T02520164  RH  060%=      5-min Rain = 0
KST1 031025Z 14012KT 25/17 A3003 RMK A01 T02510166  RH  061%=      5-min Rain = 0
KST1 031030Z 14012KT 25/17 A3003 RMK A01 T02500168  RH  062%=      5-min Rain = 0
KST1 031035Z 14011KT 25/17 A3003 RMK A01 T02500169  RH  062%=      5-min Rain = 0
KST1 031040Z 15011KT 25/17 A3003 RMK A01 T02490171  RH  063%=      5-min Rain = 0
KST1 031045Z 15011KT 25/17 A3003 RMK A01 T02480173  RH  064%=      5-min Rain = 0
KST1 031050Z 15011G16KT 25/18 A3003 RMK A01 T02480176  RH  066%=      5-min Rain = 0
KST1 031055Z 15011KT 25/18 A3003 RMK A01 T02480178  RH  067%=      5-min Rain = 0
KST1 031100Z 15012KT 25/18 A3003 RMK A01 T02470181  RH  068%=      5-min Rain = 0
KST1 031105Z 15013KT 25/18 A3003 RMK A01 T02470184  RH  070%=      5-min Rain = 0
KST1 031110Z 15012KT 25/19 A3004 RMK A01 T02460186  RH  071%=      5-min Rain = 0
KST1 031115Z 16013KT 25/19 A3004 RMK A01 T02460188  RH  072%=      5-min Rain = 0
KST1 031120Z 15013KT 25/19 A3004 RMK A01 T02450190  RH  073%=      5-min Rain = 0
KST1 031125Z 15012KT 25/19 A3004 RMK A01 T02450191  RH  074%=      5-min Rain = 0
KST1 031130Z 16011KT 25/19 A3004 RMK A01 T02450192  RH  074%=      5-min Rain = 0
KST1 031135Z 16012KT 24/19 A3004 RMK A01 T02440193  RH  075%=      5-min Rain = 0
KST1 031140Z 16013KT 24/19 A3004 RMK A01 T02440194  RH  076%=      5-min Rain = 0
KST1 031145Z 16012KT 24/20 A3004 RMK A01 T02440195  RH  076%=      5-min Rain = 0
KST1 031150Z 16013G18KT 24/20 A3004 RMK A01 T02430196  RH  077%=      5-min Rain = 0
KST1 031155Z 16013KT 24/20 A3004 RMK A01 T02430197  RH  077%=      5-min Rain = 0
KST1 031200Z 16012KT 24/20 A3004 RMK A01 T02430197  RH  078%=      5-min Rain = 0
KST1 031205Z 16012KT 24/20 A3005 RMK A01 T02430198  RH  078%=      5-min Rain = 0
KST1 031210Z 16012KT 24/20 A3005 RMK A01 T02420198  RH  078%=      5-min Rain = 0
KST1 031215Z 16012KT 24/20 A3005 RMK A01 T02420198  RH  079%=      5-min Rain = 0
KST1 031220Z 15012KT 24/20 A3005 RMK A01 T02420199  RH  079%=      5-min Rain = 0
KST1 031225Z 16012KT 24/20 A3005 RMK A01 T02420199  RH  079%=      5-min Rain = 0
KST1 031230Z 16012KT 24/20 A3006 RMK A01 T02420200  RH  079%=      5-min Rain = 0
KST1 031235Z 16012KT 24/20 A3006 RMK A01 T02420200  RH  080%=      5-min Rain = 0
KST1 031240Z 16011KT 24/20 A3006 RMK A01 T02430200  RH  079%=      5-min Rain = 0
KST1 031245Z 16012KT 24/20 A3006 RMK A01 T02430200  RH  079%=      5-min Rain = 0
KST1 031250Z 16013KT 24/20 A3006 RMK A01 T02430201  RH  080%=      5-min Rain = 0
KST1 031255Z 16013KT 24/20 A3006 RMK A01 T02440201  RH  079%=      5-min Rain = 0
KST1 031300Z 16014KT 25/20 A3006 RMK A01 T02450201  RH  079%=      5-min Rain = 0
KST1 031305Z 16012KT 25/20 A3006 RMK A01 T02470201  RH  078%=      5-min Rain = 0
KST1 031310Z 17013G18KT 25/20 A3006 RMK A01 T02490201  RH  077%=      5-min Rain = 0
KST1 031315Z 17013KT 25/20 A3006 RMK A01 T02490202  RH  077%=      5-min Rain = 0
KST1 031320Z 17012KT 25/20 A3006 RMK A01 T02510202  RH  077%=      5-min Rain = 0
KST1 031325Z 17015KT 25/20 A3006 RMK A01 T02510202  RH  076%=      5-min Rain = 0
KST1 031330Z 17015KT 25/20 A3007 RMK A01 T02520202  RH  076%=      5-min Rain = 0
KST1 031335Z 18015KT 25/20 A3007 RMK A01 T02520202  RH  076%=      5-min Rain = 0
KST1 031340Z 17013KT 26/20 A3007 RMK A01 T02570202  RH  074%=      5-min Rain = 0
KST1 031345Z 17015G20KT 26/20 A3006 RMK A01 T02580201  RH  073%=      5-min Rain = 0
KST1 031350Z 17015KT 26/20 A3006 RMK A01 T02580200  RH  073%=      5-min Rain = 0
KST1 031355Z 17013KT 26/20 A3007 RMK A01 T02600201  RH  072%=      5-min Rain = 0
KST1 031400Z 16014KT 26/20 A3007 RMK A01 T02610200  RH  071%=      5-min Rain = 0
KST1 031405Z 17014G19KT 26/20 A3007 RMK A01 T02640199  RH  069%=      5-min Rain = 0
KST1 031410Z 17013G18KT 27/20 A3007 RMK A01 T02650200  RH  069%=      5-min Rain = 0
KST1 031415Z 17014KT 27/20 A3007 RMK A01 T02650199  RH  069%=      5-min Rain = 0
KST1 031420Z 16012KT 27/20 A3007 RMK A01 T02670200  RH  068%=      5-min Rain = 0
KST1 031425Z 16013KT 27/20 A3007 RMK A01 T02690199  RH  067%=      5-min Rain = 0
KST1 031430Z 16012KT 27/20 A3007 RMK A01 T02720199  RH  066%=      5-min Rain = 0
KST1 031435Z 16012KT 28/20 A3008 RMK A01 T02760199  RH  065%=      5-min Rain = 0
KST1 031440Z 17013KT 28/20 A3008 RMK A01 T02770197  RH  064%=      5-min Rain = 0
KST1 031445Z 15013KT 28/20 A3008 RMK A01 T02780198  RH  063%=      5-min Rain = 0
KST1 031450Z 16012G18KT 28/20 A3008 RMK A01 T02800197  RH  063%=      5-min Rain = 0
KST1 031455Z 16014KT 28/19 A3008 RMK A01 T02810194  RH  061%=      5-min Rain = 0
KST1 031500Z 17014KT 28/19 A3008 RMK A01 T02820194  RH  061%=      5-min Rain = 0
KST1 031505Z 16013G18KT 29/20 A3008 RMK A01 T02860196  RH  060%=      5-min Rain = 0
KST1 031510Z 16012KT 29/19 A3008 RMK A01 T02860194  RH  059%=      5-min Rain = 0
KST1 031515Z 16012KT 29/20 A3008 RMK A01 T02890195  RH  058%=      5-min Rain = 0
KST1 031520Z 15012G17KT 29/19 A3008 RMK A01 T02910194  RH  057%=      5-min Rain = 0
KST1 031525Z 17011KT 29/19 A3008 RMK A01 T02930191  RH  056%=      5-min Rain = 0
KST1 031530Z 16012KT 29/19 A3008 RMK A01 T02940190  RH  055%=      5-min Rain = 0
KST1 031535Z 16012G17KT 30/19 A3008 RMK A01 T02970187  RH  053%=      5-min Rain = 0
KST1 031540Z 15013KT 30/19 A3007 RMK A01 T02990188  RH  053%=      5-min Rain = 0
KST1 031545Z 16013KT 30/19 A3007 RMK A01 T03010186  RH  051%=      5-min Rain = 0
KST1 031550Z 17014KT 30/18 A3007 RMK A01 T03030181  RH  049%=      5-min Rain = 0
KST1 031555Z 17013KT 31/18 A3007 RMK A01 T03060180  RH  048%=      5-min Rain = 0
KST1 031600Z 16013G20KT 31/18 A3007 RMK A01 T03070176  RH  047%=      5-min Rain = 0
KST1 031605Z 17014KT 31/18 A3007 RMK A01 T03080176  RH  047%=      5-min Rain = 0
KST1 031610Z 17013KT 31/17 A3007 RMK A01 T03090173  RH  045%=      5-min Rain = 0
KST1 031615Z 17015KT 31/17 A3007 RMK A01 T03140171  RH  043%=      5-min Rain = 0
KST1 031620Z 17014KT 32/17 A3007 RMK A01 T03170173  RH  043%=      5-min Rain = 0
KST1 031625Z 16013KT 32/17 A3007 RMK A01 T03150170  RH  043%=      5-min Rain = 0
KST1 031630Z 16015KT 32/16 A3007 RMK A01 T03200162  RH  040%=      5-min Rain = 0
KST1 031635Z 17015KT 32/16 A3007 RMK A01 T03190162  RH  040%=      5-min Rain = 0
KST1 031640Z 16014G20KT 32/16 A3007 RMK A01 T03210163  RH  040%=      5-min Rain = 0
KST1 031645Z 16014KT 33/16 A3007 RMK A01 T03250160  RH  038%=      5-min Rain = 0
KST1 031650Z 17013G21KT 33/15 A3007 RMK A01 T03250154  RH  037%=      5-min Rain = 0
KST1 031655Z 16013KT 33/16 A3007 RMK A01 T03290159  RH  037%=      5-min Rain = 0
KST1 031700Z 16014G21KT 33/16 A3007 RMK A01 T03270161  RH  038%=      5-min Rain = 0
KST1 031705Z 14013G19KT 33/16 A3007 RMK A01 T03290155  RH  036%=      5-min Rain = 0
KST1 031710Z 15015G21KT 33/16 A3007 RMK A01 T03320158  RH  036%=      5-min Rain = 0
KST1 031715Z 15014G19KT 33/15 A3007 RMK A01 T03320150  RH  034%=      5-min Rain = 0
KST1 031720Z 16013G19KT 34/15 A3007 RMK A01 T03350147  RH  033%=      5-min Rain = 0
KST1 031725Z 16014G19KT 34/14 A3007 RMK A01 T03380137  RH  030%=      5-min Rain = 0
KST1 031730Z 16014KT 34/15 A3006 RMK A01 T03360145  RH  032%=      5-min Rain = 0
KST1 031735Z 15013G19KT 34/14 A3006 RMK A01 T03380140  RH  031%=      5-min Rain = 0
KST1 031740Z 14013G20KT 34/14 A3006 RMK A01 T03370138  RH  031%=      5-min Rain = 0
KST1 031745Z 16013G19KT 34/13 A3006 RMK A01 T03390134  RH  030%=      5-min Rain = 0
KST1 031750Z 16012G21KT 34/13 A3006 RMK A01 T03390134  RH  030%=      5-min Rain = 0
KST1 031755Z 16013G18KT 35/13 A3006 RMK A01 T03450129  RH  028%=      5-min Rain = 0
KST1 031800Z 14014G21KT 34/14 A3006 RMK A01 T03400139  RH  030%=      5-min Rain = 0
KST1 031805Z 14014G21KT 35/13 A3006 RMK A01 T03460134  RH  029%=      5-min Rain = 0
KST1 031810Z 13010G17KT 34/14 A3006 RMK A01 T03420135  RH  029%=      5-min Rain = 0
KST1 031815Z 16013KT 35/14 A3006 RMK A01 T03470135  RH  028%=      5-min Rain = 0
KST1 031820Z 15012G18KT 35/13 A3006 RMK A01 T03450132  RH  028%=      5-min Rain = 0
KST1 031825Z 13014G21KT 35/13 A3005 RMK A01 T03480132  RH  028%=      5-min Rain = 0
KST1 031830Z 13009G15KT 35/13 A3005 RMK A01 T03530133  RH  027%=      5-min Rain = 0
KST1 031835Z 15014G21KT 35/14 A3005 RMK A01 T03500135  RH  028%=      5-min Rain = 0
KST1 031840Z 14015G21KT 35/12 A3005 RMK A01 T03530124  RH  026%=      5-min Rain = 0
KST1 031845Z 11009G15KT 35/13 A3005 RMK A01 T03460128  RH  027%=      5-min Rain = 0
KST1 031850Z 13012G18KT 35/13 A3004 RMK A01 T03470129  RH  027%=      5-min Rain = 0
KST1 031855Z 15010G17KT 35/13 A3004 RMK A01 T03480129  RH  027%=      5-min Rain = 0
KST1 031900Z 13012G19KT 35/13 A3004 RMK A01 T03510130  RH  027%=      5-min Rain = 0
KST1 031905Z 13011G18KT 35/13 A3004 RMK A01 T03520130  RH  027%=      5-min Rain = 0
KST1 031910Z 16010G15KT 35/13 A3004 RMK A01 T03490133  RH  028%=      5-min Rain = 0
KST1 031915Z 18013G19KT 36/13 A3003 RMK A01 T03550133  RH  027%=      5-min Rain = 0
KST1 031920Z 17011G16KT 35/13 A3003 RMK A01 T03490129  RH  027%=      5-min Rain = 0
KST1 031925Z 16012G21KT 35/13 A3003 RMK A01 T03530127  RH  026%=      5-min Rain = 0
KST1 031930Z 15013G19KT 36/12 A3003 RMK A01 T03550122  RH  025%=      5-min Rain = 0
KST1 031935Z 14008KT 35/12 A3003 RMK A01 T03520118  RH  025%=      5-min Rain = 0
KST1 031940Z 13012G18KT 35/13 A3003 RMK A01 T03520125  RH  026%=      5-min Rain = 0
KST1 031945Z 14012G19KT 35/12 A3003 RMK A01 T03540122  RH  025%=      5-min Rain = 0
KST1 031950Z 17011G17KT 36/12 A3002 RMK A01 T03620119  RH  024%=      5-min Rain = 0
KST1 031955Z 20010G20KT 36/12 A3002 RMK A01 T03560120  RH  024%=      5-min Rain = 0
KST1 032000Z 15013G26KT 36/13 A3002 RMK A01 T03620125  RH  025%=      5-min Rain = 0
KST1 032005Z 15012G18KT 36/12 A3002 RMK A01 T03610123  RH  024%=      5-min Rain = 0
KST1 032010Z 18013G19KT 36/12 A3002 RMK A01 T03600122  RH  024%=      5-min Rain = 0
KST1 032015Z 14009G14KT 36/12 A3002 RMK A01 T03590121  RH  024%=      5-min Rain = 0
KST1 032020Z 13010G19KT 36/12 A3002 RMK A01 T03600122  RH  024%=      5-min Rain = 0
KST1 032025Z 14013G18KT 36/12 A3002 RMK A01 T03620123  RH  024%=      5-min Rain = 0
KST1 032030Z 15009G14KT 36/12 A3002 RMK A01 T03560122  RH  025%=      5-min Rain = 0
KST1 032035Z 18011G17KT 36/12 A3001 RMK A01 T03600122  RH  024%=      5-min Rain = 0
KST1 032040Z 19012G22KT 36/13 A3001 RMK A01 T03580126  RH  025%=      5-min Rain = 0
KST1 032045Z 14013KT 36/13 A3001 RMK A01 T03620126  RH  025%=      5-min Rain = 0
KST1 032050Z 12010G17KT 36/12 A3001 RMK A01 T03590119  RH  024%=      5-min Rain = 0
KST1 032055Z 16013G19KT 36/12 A3001 RMK A01 T03640118  RH  023%=      5-min Rain = 0
KST1 032100Z 14010KT 36/12 A30 RMK A01 T03610117  RH  023%=      5-min Rain = 0
KST1 032105Z 14010G19KT 36/12 A30 RMK A01 T03610117  RH  023%=      5-min Rain = 0
KST1 032110Z 14012G19KT 37/12 A30 RMK A01 T03690119  RH  023%=      5-min Rain = 0
KST1 032115Z 13011G16KT 37/12 A30 RMK A01 T03670120  RH  023%=      5-min Rain = 0
KST1 032120Z 13014G19KT 36/12 A30 RMK A01 T03640119  RH  023%=      5-min Rain = 0
KST1 032125Z 14014G20KT 37/12 A30 RMK A01 T03670117  RH  023%=      5-min Rain = 0
KST1 032130Z 14010G17KT 36/12 A2999 RMK A01 T03620118  RH  023%=      5-min Rain = 0
KST1 032135Z 13013KT 37/12 A2999 RMK A01 T03670119  RH  023%=      5-min Rain = 0
KST1 032140Z 13012G17KT 37/12 A2999 RMK A01 T03690119  RH  023%=      5-min Rain = 0
KST1 032145Z 11012KT 36/12 A2999 RMK A01 T03600118  RH  024%=      5-min Rain = 0
KST1 032150Z 15011G21KT 37/12 A2999 RMK A01 T03680116  RH  022%=      5-min Rain = 0
KST1 032155Z 15011G17KT 37/12 A2999 RMK A01 T03650117  RH  023%=      5-min Rain = 0
KST1 032200Z 16014G19KT 37/12 A2998 RMK A01 T03660117  RH  023%=      5-min Rain = 0
KST1 032205Z 15015G20KT 37/12 A2998 RMK A01 T03660116  RH  023%=      5-min Rain = 0
KST1 032210Z 16009G14KT 36/11 A2998 RMK A01 T03600114  RH  023%=      5-min Rain = 0
KST1 032215Z 15009G19KT 36/12 A2998 RMK A01 T03590116  RH  023%=      5-min Rain = 0
KST1 032220Z 13011G18KT 36/12 A2998 RMK A01 T03630118  RH  023%=      5-min Rain = 0
KST1 032225Z 14009G16KT 36/12 A2998 RMK A01 T03620115  RH  023%=      5-min Rain = 0
KST1 032230Z 15013G18KT 37/11 A2998 RMK A01 T03670112  RH  022%=      5-min Rain = 0
KST1 032235Z 14010G16KT 36/11 A2998 RMK A01 T03640112  RH  022%=      5-min Rain = 0
KST1 032240Z 11009G20KT 36/11 A2998 RMK A01 T03630111  RH  022%=      5-min Rain = 0
KST1 032245Z 13011G18KT 36/11 A2998 RMK A01 T03630113  RH  023%=      5-min Rain = 0
KST1 032250Z 14009KT 36/12 A2998 RMK A01 T03630116  RH  023%=      5-min Rain = 0
KST1 032255Z 14012G18KT 37/11 A2998 RMK A01 T03680113  RH  022%=      5-min Rain = 0
KST1 032300Z 12008G15KT 36/11 A2998 RMK A01 T03630111  RH  022%=      5-min Rain = 0
KST1 032305Z 12010G16KT 36/11 A2997 RMK A01 T03620113  RH  023%=      5-min Rain = 0
KST1 032310Z 13010KT 36/11 A2997 RMK A01 T03630112  RH  022%=      5-min Rain = 0
KST1 032315Z 14012KT 36/11 A2997 RMK A01 T03630110  RH  022%=      5-min Rain = 0
KST1 032320Z 16007KT 36/11 A2997 RMK A01 T03590110  RH  023%=      5-min Rain = 0
KST1 032325Z 14009KT 36/11 A2997 RMK A01 T03620109  RH  022%=      5-min Rain = 0
KST1 032330Z 14009KT 36/11 A2997 RMK A01 T03630109  RH  022%=      5-min Rain = 0
KST1 032335Z 16006KT 36/11 A2996 RMK A01 T03620108  RH  022%=      5-min Rain = 0
KST1 032340Z 14009KT 36/11 A2996 RMK A01 T03610112  RH  023%=      5-min Rain = 0
KST1 032345Z 17008KT 36/11 A2996 RMK A01 T03590112  RH  023%=      5-min Rain = 0
KST1 032350Z 14011G16KT 36/11 A2996 RMK A01 T03620112  RH  023%=      5-min Rain = 0
KST1 032355Z 13010G16KT 36/11 A2996 RMK A01 T03580111  RH  023%=      5-min Rain = 0
KST1 040000Z 14010G16KT 36/11 A2996 RMK A01 T03580112  RH  023%=      5-min Rain = 0
KST1 040005Z 14010KT 36/11 A2996 RMK A01 T03580111  RH  023%=      5-min Rain = 0
KST1 040010Z 15008KT 36/11 A2996 RMK A01 T03560110  RH  023%=      5-min Rain = 0
KST1 040015Z 15010G15KT 36/11 A2997 RMK A01 T03560112  RH  023%=      5-min Rain = 0
KST1 040020Z 11009KT 36/11 A2997 RMK A01 T03560110  RH  023%=      5-min Rain = 0
KST1 040025Z 13010KT 36/11 A2997 RMK A01 T03550113  RH  024%=      5-min Rain = 0
KST1 040030Z 14012KT 36/12 A2996 RMK A01 T03560116  RH  024%=      5-min Rain = 0
KST1 040035Z 15012KT 36/12 A2996 RMK A01 T03550115  RH  024%=      5-min Rain = 0
KST1 040040Z 13009KT 35/11 A2996 RMK A01 T03520114  RH  024%=      5-min Rain = 0
KST1 040045Z 13011G17KT 35/12 A2996 RMK A01 T03530116  RH  024%=      5-min Rain = 0
KST1 040050Z 12014KT 35/12 A2996 RMK A01 T03500116  RH  025%=      5-min Rain = 0
KST1 040055Z 12012KT 35/12 A2996 RMK A01 T03490116  RH  025%=      5-min Rain = 0
KST1 040100Z 12012KT 35/12 A2996 RMK A01 T03470117  RH  025%=      5-min Rain = 0
KST1 040105Z 14014KT 35/12 A2997 RMK A01 T03470115  RH  025%=      5-min Rain = 0
KST1 040110Z 13012KT 35/11 A2997 RMK A01 T03460112  RH  025%=      5-min Rain = 0
KST1 040115Z 12013KT 34/11 A2997 RMK A01 T03430113  RH  025%=      5-min Rain = 0
KST1 040120Z 13013KT 34/11 A2997 RMK A01 T03410114  RH  026%=      5-min Rain = 0
KST1 040125Z 12012KT 34/11 A2997 RMK A01 T03400112  RH  025%=      5-min Rain = 0
KST1 040130Z 12012KT 34/11 A2998 RMK A01 T03380112  RH  026%=      5-min Rain = 0
KST1 040135Z 13011KT 34/11 A2998 RMK A01 T03360111  RH  026%=      5-min Rain = 0
KST1 040140Z 12010KT 33/11 A2998 RMK A01 T03340110  RH  026%=      5-min Rain = 0
KST1 040145Z 12011KT 33/11 A2998 RMK A01 T03330109  RH  026%=      5-min Rain = 0
KST1 040150Z 12011KT 33/11 A2998 RMK A01 T03310108  RH  026%=      5-min Rain = 0
KST1 040155Z 12009KT 33/11 A2998 RMK A01 T03280107  RH  026%=      5-min Rain = 0
KST1 040200Z 12009KT 33/11 A2998 RMK A01 T03250106  RH  027%=      5-min Rain = 0
KST1 040205Z 12009KT 32/11 A2999 RMK A01 T03230105  RH  027%=      5-min Rain = 0
KST1 040210Z 12008KT 32/10 A2999 RMK A01 T03200104  RH  027%=      5-min Rain = 0
KST1 040215Z 12008KT 32/10 A2999 RMK A01 T03180103  RH  027%=      5-min Rain = 0
KST1 040220Z 13008KT 32/10 A2999 RMK A01 T03150101  RH  027%=      5-min Rain = 0
KST1 040225Z 13009KT 31/10 A2999 RMK A01 T03130099  RH  027%=      5-min Rain = 0
KST1 040230Z 13008KT 31/10 A2999 RMK A01 T03120098  RH  027%=      5-min Rain = 0
KST1 040235Z 13008KT 31/10 A30 RMK A01 T03100098  RH  027%=      5-min Rain = 0
KST1 040240Z 13009KT 31/10 A30 RMK A01 T03090097  RH  027%=      5-min Rain = 0
KST1 040245Z 13009KT 31/10 A30 RMK A01 T03080095  RH  027%=      5-min Rain = 0
KST1 040250Z 13008KT 31/09 A30 RMK A01 T03050094  RH  027%=      5-min Rain = 0
KST1 040255Z 13008KT 30/09 A30 RMK A01 T03030094  RH  028%=      5-min Rain = 0
KST1 040300Z 13008KT 30/10 A30 RMK A01 T03020095  RH  028%=      5-min Rain = 0
KST1 040305Z 13008KT 30/10 A3001 RMK A01 T02990095  RH  028%=      5-min Rain = 0
KST1 040310Z 13008KT 30/10 A3001 RMK A01 T02970095  RH  029%=      5-min Rain = 0
KST1 040315Z 13007KT 30/10 A3001 RMK A01 T02950095  RH  029%=      5-min Rain = 0
KST1 040320Z 13007KT 29/09 A3001 RMK A01 T02910094  RH  030%=      5-min Rain = 0
KST1 040325Z 12007KT 29/09 A3002 RMK A01 T02880094  RH  030%=      5-min Rain = 0
KST1 040330Z 12007KT 29/09 A3002 RMK A01 T02870094  RH  030%=      5-min Rain = 0
KST1 040335Z 12006KT 29/09 A3003 RMK A01 T02850094  RH  031%=      5-min Rain = 0
KST1 040340Z 12007KT 29/10 A3003 RMK A01 T02860095  RH  031%=      5-min Rain = 0
KST1 040345Z 12008KT 29/10 A3003 RMK A01 T02850096  RH  031%=      5-min Rain = 0
KST1 040350Z 12008KT 29/10 A3003 RMK A01 T02860097  RH  031%=      5-min Rain = 0
KST1 040355Z 12008KT 28/10 A3003 RMK A01 T02840097  RH  031%=      5-min Rain = 0
KST1 040400Z 12008KT 28/10 A3003 RMK A01 T02830097  RH  032%=      5-min Rain = 0
KST1 040405Z 12007KT 28/10 A3003 RMK A01 T02790096  RH  032%=      5-min Rain = 0
KST1 040410Z 11007KT 28/10 A3004 RMK A01 T02780095  RH  032%=      5-min Rain = 0
KST1 040415Z 11008KT 28/09 A3004 RMK A01 T02770094  RH  032%=      5-min Rain = 0
KST1 040420Z 11008KT 28/09 A3004 RMK A01 T02750094  RH  033%=      5-min Rain = 0
KST1 040425Z 11008KT 28/09 A3004 RMK A01 T02750094  RH  033%=      5-min Rain = 0
KST1 040430Z 12007KT 28/10 A3004 RMK A01 T02770095  RH  033%=      5-min Rain = 0
KST1 040435Z 12008KT 27/10 A3004 RMK A01 T02740095  RH  033%=      5-min Rain = 0
KST1 040440Z 12008KT 27/10 A3004 RMK A01 T02720095  RH  033%=      5-min Rain = 0
KST1 040445Z 12008KT 27/09 A3004 RMK A01 T02680093  RH  034%=      5-min Rain = 0
KST1 040450Z 13008KT 27/09 A3004 RMK A01 T02660092  RH  034%=      5-min Rain = 0
KST1 040455Z 13007KT 26/09 A3004 RMK A01 T02630091  RH  034%=      5-min Rain = 0

Page generated in 0.0098 seconds.